Time;durP1;ratioP1;P1;durP2;ratioP2;P2;SDS_P1;SDS_P2;PMS_P1;PMS_P2;Temp;Humidity;BMP_temperature;BMP_pressure;BME280_temperature;BME280_humidity;BME280_pressure;Samples;Min_cycle;Max_cycle;Signal;HPM_P1;HPM_P2
2021/01/27 00:00:29;;;;;;;17.08;2.78;;;;;;;;;;4977202;28;20040;-88
2021/01/27 00:03:01;;;;;;;16.25;2.80;;;;;;;;;;4985524;28;20045;-87
2021/01/27 00:05:35;;;;;;;15.05;3.00;;;;;;;;;;4965683;28;20037;-87
2021/01/27 00:08:03;;;;;;;15.88;2.85;;;;;;;;;;4994004;28;20041;-87
2021/01/27 00:10:32;;;;;;;16.83;4.10;;;;;;;;;;4991957;28;20320;-88
2021/01/27 00:12:59;;;;;;;20.13;3.78;;;;;;;;;;4977163;28;20996;-88
2021/01/27 00:15:28;;;;;;;19.83;3.58;;;;;;;;;;4968342;28;20061;-87
2021/01/27 00:17:57;;;;;;;17.92;2.78;;;;;;;;;;4964795;28;20041;-86
2021/01/27 00:20:26;;;;;;;16.17;2.42;;;;;;;;;;4964784;28;20038;-87
2021/01/27 00:22:53;;;;;;;17.02;2.83;;;;;;;;;;4976498;28;20045;-88
2021/01/27 00:25:22;;;;;;;15.43;3.38;;;;;;;;;;4987312;28;20131;-87
2021/01/27 00:27:51;;;;;;;19.35;2.95;;;;;;;;;;4935808;28;20091;-88
2021/01/27 00:30:26;;;;;;;16.65;2.97;;;;;;;;;;4956195;28;20042;-88
2021/01/27 00:32:54;;;;;;;15.15;3.03;;;;;;;;;;4974435;28;20092;-87
2021/01/27 00:35:27;;;;;;;14.23;3.17;;;;;;;;;;4959060;28;20042;-88
2021/01/27 00:37:55;;;;;;;17.77;3.55;;;;;;;;;;4976779;28;20041;-88
2021/01/27 00:40:22;;;;;;;19.65;3.40;;;;;;;;;;4972552;28;20513;-88
2021/01/27 00:42:51;;;;;;;20.50;3.00;;;;;;;;;;4952590;28;20132;-88
2021/01/27 00:45:19;;;;;;;15.40;2.92;;;;;;;;;;5007245;28;20057;-88
2021/01/27 00:47:57;;;;;;;16.48;2.63;;;;;;;;;;4988898;28;20176;-89
2021/01/27 00:50:25;;;;;;;18.13;2.53;;;;;;;;;;4977055;28;20766;-88
2021/01/27 00:52:54;;;;;;;19.48;2.63;;;;;;;;;;4973978;28;20043;-88
2021/01/27 00:55:23;;;;;;;15.80;2.97;;;;;;;;;;5001040;28;20584;-88
2021/01/27 00:57:51;;;;;;;17.83;2.95;;;;;;;;;;4978062;28;20062;-88
2021/01/27 01:00:27;;;;;;;15.02;2.80;;;;;;;;;;4972723;28;20108;-88
2021/01/27 01:02:54;;;;;;;19.02;3.65;;;;;;;;;;4989490;28;20045;-88
2021/01/27 01:05:23;;;;;;;13.98;2.50;;;;;;;;;;5002691;28;20665;-89
2021/01/27 01:07:54;;;;;;;15.30;2.47;;;;;;;;;;5026313;28;20041;-86
2021/01/27 01:10:34;;;;;;;14.32;2.78;;;;;;;;;;4996561;28;20029;-87
2021/01/27 01:13:03;;;;;;;13.93;2.67;;;;;;;;;;4997034;28;20045;-88
2021/01/27 01:15:31;;;;;;;13.40;2.70;;;;;;;;;;4997033;28;20622;-88
2021/01/27 01:18:00;;;;;;;18.02;4.20;;;;;;;;;;4989916;28;20057;-89
2021/01/27 01:20:28;;;;;;;13.73;2.63;;;;;;;;;;4988151;28;20029;-88
2021/01/27 01:22:58;;;;;;;13.40;2.88;;;;;;;;;;4998838;28;20026;-88
2021/01/27 01:25:27;;;;;;;14.85;3.30;;;;;;;;;;4997992;28;20040;-89
2021/01/27 01:27:56;;;;;;;17.10;4.80;;;;;;;;;;4983246;28;20160;-88
2021/01/27 01:30:25;;;;;;;15.05;2.83;;;;;;;;;;4982484;28;20033;-88
2021/01/27 01:33:05;;;;;;;17.20;3.53;;;;;;;;;;5010737;28;20841;-87
2021/01/27 01:35:33;;;;;;;14.07;2.55;;;;;;;;;;4989154;28;20097;-87
2021/01/27 01:38:00;;;;;;;16.33;3.17;;;;;;;;;;5008829;28;20148;-87
2021/01/27 01:40:28;;;;;;;13.20;2.70;;;;;;;;;;5004791;28;20037;-87
2021/01/27 01:43:16;;;;;;;14.23;3.08;;;;;;;;;;4986352;28;20025;-86
2021/01/27 01:45:42;;;;;;;;;;;;;;;;;;4985863;28;20025;-87
2021/01/27 01:48:15;;;;;;;18.67;2.60;;;;;;;;;;4999824;28;19928;-88
2021/01/27 01:50:48;;;;;;;13.77;2.70;;;;;;;;;;5002283;28;20191;-87
2021/01/27 01:53:15;;;;;;;15.25;3.10;;;;;;;;;;4983448;28;20099;-87
2021/01/27 01:55:44;;;;;;;18.85;3.33;;;;;;;;;;4972685;28;20053;-87
2021/01/27 01:58:13;;;;;;;14.75;2.80;;;;;;;;;;4995704;28;20025;-88
2021/01/27 02:00:42;;;;;;;15.52;2.63;;;;;;;;;;4981426;28;20037;-87
2021/01/27 02:03:14;;;;;;;14.20;2.50;;;;;;;;;;4967773;28;20132;-87
2021/01/27 02:05:42;;;;;;;17.25;2.65;;;;;;;;;;4996267;28;20111;-87
2021/01/27 02:08:13;;;;;;;20.23;3.33;;;;;;;;;;4974798;28;20464;-87
2021/01/27 02:10:41;;;;;;;13.93;2.30;;;;;;;;;;5000080;28;20687;-87
2021/01/27 02:13:25;;;;;;;15.20;2.58;;;;;;;;;;5006311;28;20052;-88
2021/01/27 02:16:12;;;;;;;14.70;2.53;;;;;;;;;;4993266;28;20078;-87
2021/01/27 02:18:59;;;;;;;13.90;2.78;;;;;;;;;;4960192;28;20052;-88
2021/01/27 02:21:34;;;;;;;12.43;2.45;;;;;;;;;;4975993;28;20042;-88
2021/01/27 02:24:19;;;;;;;15.77;2.92;;;;;;;;;;4999701;28;20025;-88
2021/01/27 02:26:52;;;;;;;15.70;2.88;;;;;;;;;;5007885;28;20045;-88
2021/01/27 02:29:44;;;;;;;17.20;3.20;;;;;;;;;;4977880;28;20545;-88
2021/01/27 02:32:29;;;;;;;20.75;3.60;;;;;;;;;;4979532;28;20160;-88
2021/01/27 02:35:18;;;;;;;17.38;2.78;;;;;;;;;;4984901;28;21016;-88
2021/01/27 02:37:55;;;;;;;18.13;3.00;;;;;;;;;;4995257;28;20033;-88
2021/01/27 02:40:36;;;;;;;17.33;2.95;;;;;;;;;;4992969;28;20032;-88
2021/01/27 02:43:09;;;;;;;20.23;3.28;;;;;;;;;;4996900;28;20052;-88
2021/01/27 02:45:40;;;;;;;17.45;2.92;;;;;;;;;;4990910;28;20111;-87
2021/01/27 02:48:20;;;;;;;16.60;2.90;;;;;;;;;;4985530;28;20089;-88
2021/01/27 02:50:55;;;;;;;18.30;2.65;;;;;;;;;;4968308;28;20038;-87
2021/01/27 02:53:28;;;;;;;16.85;2.97;;;;;;;;;;4966239;28;20058;-88
2021/01/27 02:56:00;;;;;;;18.98;3.38;;;;;;;;;;4976264;28;20080;-88
2021/01/27 02:58:34;;;;;;;14.18;2.47;;;;;;;;;;5002756;28;20022;-88
2021/01/27 03:01:02;;;;;;;19.00;2.95;;;;;;;;;;5024103;28;20086;-88
2021/01/27 03:03:44;;;;;;;15.90;3.10;;;;;;;;;;4999832;28;20732;-88
2021/01/27 03:06:13;;;;;;;18.48;3.63;;;;;;;;;;4978393;28;20239;-88
2021/01/27 03:08:44;;;;;;;16.80;2.30;;;;;;;;;;4998077;28;20067;-87
2021/01/27 03:11:27;;;;;;;22.25;2.75;;;;;;;;;;5005368;28;20052;-87
2021/01/27 03:13:55;;;;;;;19.45;3.20;;;;;;;;;;5011029;28;20033;-87
2021/01/27 03:16:36;;;;;;;18.60;2.78;;;;;;;;;;5013990;28;20101;-87
2021/01/27 03:19:09;;;;;;;18.40;2.80;;;;;;;;;;5010652;28;20038;-87
2021/01/27 03:21:39;;;;;;;14.10;2.92;;;;;;;;;;5012340;28;20060;-87
2021/01/27 03:24:08;;;;;;;15.40;2.70;;;;;;;;;;5005104;28;20036;-87
2021/01/27 03:26:55;;;;;;;15.23;2.83;;;;;;;;;;5013151;28;20041;-87
2021/01/27 03:29:40;;;;;;;16.13;3.05;;;;;;;;;;5000389;28;20413;-87
2021/01/27 03:32:09;;;;;;;12.77;2.60;;;;;;;;;;5024144;28;20022;-88
2021/01/27 03:34:39;;;;;;;14.70;2.70;;;;;;;;;;5028626;28;20037;-88
2021/01/27 03:37:34;;;;;;;14.13;2.58;;;;;;;;;;5002404;28;20047;-88
2021/01/27 03:40:09;;;;;;;16.92;3.15;;;;;;;;;;4998619;28;20135;-87
2021/01/27 03:42:52;;;;;;;19.55;3.10;;;;;;;;;;5010916;28;20109;-87
2021/01/27 03:45:21;;;;;;;14.70;2.42;;;;;;;;;;5016112;28;20076;-88
2021/01/27 03:48:11;;;;;;;14.20;2.22;;;;;;;;;;5006900;28;20114;-88
2021/01/27 03:50:51;;;;;;;13.85;3.13;;;;;;;;;;4991342;28;20056;-87
2021/01/27 03:53:20;;;;;;;13.95;2.78;;;;;;;;;;5009507;28;20380;-88
2021/01/27 03:55:53;;;;;;;15.73;2.90;;;;;;;;;;5001856;28;20408;-88
2021/01/27 03:58:27;;;;;;;14.57;2.50;;;;;;;;;;5009513;28;20072;-87
2021/01/27 04:00:59;;;;;;;14.73;2.70;;;;;;;;;;5023426;28;20389;-87
2021/01/27 04:03:28;;;;;;;13.07;2.80;;;;;;;;;;5000942;28;20041;-87
2021/01/27 04:05:55;;;;;;;12.93;2.55;;;;;;;;;;5007473;28;20739;-87
2021/01/27 04:08:23;;;;;;;16.52;3.20;;;;;;;;;;5005880;28;20033;-86
2021/01/27 04:10:54;;;;;;;15.05;2.67;;;;;;;;;;5003149;28;20045;-87
2021/01/27 04:13:22;;;;;;;13.90;2.42;;;;;;;;;;4997802;28;20048;-87
2021/01/27 04:15:51;;;;;;;11.98;2.67;;;;;;;;;;5003027;28;20543;-87
2021/01/27 04:18:19;;;;;;;15.95;2.85;;;;;;;;;;4979971;28;20158;-87
2021/01/27 04:20:48;;;;;;;12.30;2.72;;;;;;;;;;4985142;28;20046;-86
2021/01/27 04:23:15;;;;;;;14.65;3.13;;;;;;;;;;4950102;28;20132;-87
2021/01/27 04:25:43;;;;;;;18.42;3.15;;;;;;;;;;4966090;28;20040;-87
2021/01/27 04:28:11;;;;;;;14.55;2.85;;;;;;;;;;4951360;28;20042;-88
2021/01/27 04:30:40;;;;;;;15.23;2.85;;;;;;;;;;4985989;28;20530;-87
2021/01/27 04:36:12;;;;;;;12.10;3.10;;;;;;;;;;4957381;28;20056;-88
2021/01/27 04:38:38;;;;;;;15.32;3.53;;;;;;;;;;4969925;28;20054;-88
2021/01/27 04:41:08;;;;;;;18.92;3.13;;;;;;;;;;4971696;28;20033;-88
2021/01/27 04:43:41;;;;;;;15.57;3.05;;;;;;;;;;4969703;28;20044;-88
2021/01/27 04:46:28;;;;;;;19.50;3.50;;;;;;;;;;4962952;28;20448;-87
2021/01/27 04:49:12;;;;;;;16.27;3.58;;;;;;;;;;4957910;28;20499;-87
2021/01/27 04:51:54;;;;;;;15.25;3.08;;;;;;;;;;4981811;28;20700;-87
2021/01/27 04:54:29;;;;;;;21.67;3.30;;;;;;;;;;4990864;28;20659;-88
2021/01/27 04:57:12;;;;;;;19.05;3.03;;;;;;;;;;4934730;28;20038;-88
2021/01/27 04:59:48;;;;;;;16.70;3.22;;;;;;;;;;4966151;28;20052;-87
2021/01/27 05:02:33;;;;;;;17.33;3.27;;;;;;;;;;4996386;28;20049;-87
2021/01/27 05:05:10;;;;;;;15.55;3.55;;;;;;;;;;4988748;28;20524;-87
2021/01/27 05:07:53;;;;;;;15.63;3.60;;;;;;;;;;5005484;28;20153;-87
2021/01/27 05:10:52;;;;;;;20.05;4.25;;;;;;;;;;5004498;28;20029;-87
2021/01/27 05:13:37;;;;;;;15.43;4.03;;;;;;;;;;4907521;28;20058;-87
2021/01/27 05:16:09;;;;;;;14.82;2.72;;;;;;;;;;4883161;29;20131;-87
2021/01/27 05:18:36;;;;;;;13.82;2.97;;;;;;;;;;4902712;28;20059;-87
2021/01/27 05:21:04;;;;;;;15.70;3.03;;;;;;;;;;4898322;28;20187;-87
2021/01/27 05:23:52;;;;;;;17.27;2.85;;;;;;;;;;4900611;28;20059;-87
2021/01/27 05:26:21;;;;;;;15.15;3.10;;;;;;;;;;4892550;28;20043;-86
2021/01/27 05:29:08;;;;;;;13.35;3.20;;;;;;;;;;4874740;28;20103;-86
2021/01/27 05:31:52;;;;;;;13.18;3.15;;;;;;;;;;4883730;29;20036;-86
2021/01/27 05:34:36;;;;;;;17.73;3.10;;;;;;;;;;4891968;29;20100;-86
2021/01/27 05:37:13;;;;;;;15.10;2.95;;;;;;;;;;4880200;28;20103;-87
2021/01/27 05:39:43;;;;;;;19.98;3.38;;;;;;;;;;4853391;29;20068;-85
2021/01/27 05:42:27;;;;;;;12.98;3.05;;;;;;;;;;4878945;28;20071;-86
2021/01/27 05:45:00;;;;;;;16.75;3.33;;;;;;;;;;4893601;28;20539;-85
2021/01/27 05:47:34;;;;;;;15.15;3.10;;;;;;;;;;4889113;28;20056;-86
2021/01/27 05:50:21;;;;;;;16.58;3.40;;;;;;;;;;4928198;28;20055;-85
2021/01/27 05:52:49;;;;;;;16.40;3.35;;;;;;;;;;4923921;28;20057;-85
2021/01/27 05:55:18;;;;;;;14.27;3.63;;;;;;;;;;4955371;28;20030;-86
2021/01/27 05:57:58;;;;;;;18.10;3.15;;;;;;;;;;4920031;28;20045;-86
2021/01/27 06:00:26;;;;;;;17.50;4.03;;;;;;;;;;4862044;28;20043;-85
2021/01/27 06:02:56;;;;;;;16.90;3.30;;;;;;;;;;4945254;28;20070;-87
2021/01/27 06:05:50;;;;;;;15.60;3.72;;;;;;;;;;4994170;28;20556;-86
2021/01/27 06:08:22;;;;;;;14.95;3.80;;;;;;;;;;4968617;28;20042;-85
2021/01/27 06:10:51;;;;;;;13.02;3.15;;;;;;;;;;4991701;28;20057;-86
2021/01/27 06:13:32;;;;;;;16.15;3.35;;;;;;;;;;4996078;28;20083;-85
2021/01/27 06:15:59;;;;;;;13.35;3.35;;;;;;;;;;4992820;28;20155;-86
2021/01/27 06:18:30;;;;;;;13.57;3.47;;;;;;;;;;4991722;28;20551;-86
2021/01/27 06:21:18;;;;;;;12.82;2.85;;;;;;;;;;4982850;28;20049;-86
2021/01/27 06:23:50;;;;;;;13.95;3.13;;;;;;;;;;4940804;28;20156;-86
2021/01/27 06:26:28;;;;;;;19.00;3.67;;;;;;;;;;4961888;28;20042;-86
2021/01/27 06:29:10;;;;;;;15.63;3.40;;;;;;;;;;4975253;28;20562;-87
2021/01/27 06:32:16;;;;;;;14.43;3.38;;;;;;;;;;4989196;28;20030;-85
2021/01/27 06:35:02;;;;;;;12.02;2.60;;;;;;;;;;4906639;28;20050;-86
2021/01/27 06:37:46;;;;;;;16.10;3.60;;;;;;;;;;4912456;28;20507;-86
2021/01/27 06:40:22;;;;;;;13.20;3.00;;;;;;;;;;4892027;28;20049;-87
2021/01/27 06:43:10;;;;;;;16.60;3.65;;;;;;;;;;4897221;28;20058;-86
2021/01/27 06:45:52;;;;;;;17.38;3.42;;;;;;;;;;4935113;28;20034;-87
2021/01/27 06:48:29;;;;;;;16.98;3.13;;;;;;;;;;4907746;28;20047;-86
2021/01/27 06:51:09;;;;;;;15.60;3.42;;;;;;;;;;4929249;28;20050;-87
2021/01/27 06:53:36;;;;;;;17.88;3.55;;;;;;;;;;4906393;28;20035;-85
2021/01/27 06:56:14;;;;;;;17.38;4.03;;;;;;;;;;4907851;28;20050;-86
2021/01/27 06:59:00;;;;;;;17.75;3.70;;;;;;;;;;4934757;28;20035;-87
2021/01/27 07:01:46;;;;;;;14.85;3.67;;;;;;;;;;4950004;28;20177;-88
2021/01/27 07:04:26;;;;;;;16.50;4.25;;;;;;;;;;4950865;28;20495;-87
2021/01/27 07:07:14;;;;;;;16.35;3.92;;;;;;;;;;5007892;28;20113;-86
2021/01/27 07:10:09;;;;;;;20.65;5.00;;;;;;;;;;4971324;28;20034;-87
2021/01/27 07:12:45;;;;;;;18.48;4.57;;;;;;;;;;4959389;28;20045;-87
2021/01/27 07:15:34;;;;;;;18.83;4.97;;;;;;;;;;4964546;28;20510;-87
2021/01/27 07:18:19;;;;;;;18.35;4.80;;;;;;;;;;4982257;28;20402;-88
2021/01/27 07:21:15;;;;;;;19.33;4.22;;;;;;;;;;4994443;28;20066;-88
2021/01/27 07:23:53;;;;;;;15.10;4.43;;;;;;;;;;4980001;28;20069;-86
2021/01/27 07:26:39;;;;;;;20.75;5.18;;;;;;;;;;4985646;28;20057;-87
2021/01/27 07:29:22;;;;;;;20.13;5.45;;;;;;;;;;4967143;28;20038;-87
2021/01/27 07:32:15;;;;;;;20.30;5.57;;;;;;;;;;4947259;28;20038;-87
2021/01/27 07:34:44;;;;;;;20.10;6.40;;;;;;;;;;4901424;28;20047;-88
2021/01/27 07:37:11;;;;;;;22.92;6.35;;;;;;;;;;4876666;29;20037;-88
2021/01/27 07:39:56;;;;;;;18.85;6.28;;;;;;;;;;4855384;29;20041;-88
2021/01/27 07:42:23;;;;;;;22.20;6.50;;;;;;;;;;4863406;29;20045;-86
2021/01/27 07:44:54;;;;;;;19.85;6.63;;;;;;;;;;4832375;29;20164;-87
2021/01/27 07:47:46;;;;;;;19.95;5.95;;;;;;;;;;4829777;29;20044;-87
2021/01/27 07:50:15;;;;;;;23.23;6.22;;;;;;;;;;4857945;29;20601;-87
2021/01/27 07:53:01;;;;;;;23.13;6.82;;;;;;;;;;4847011;29;20050;-89
2021/01/27 07:55:45;;;;;;;21.13;6.33;;;;;;;;;;4869040;29;21189;-86
2021/01/27 07:58:28;;;;;;;20.40;6.93;;;;;;;;;;4845998;29;20055;-87
2021/01/27 08:01:25;;;;;;;20.75;6.03;;;;;;;;;;4853075;29;20103;-87
2021/01/27 08:04:08;;;;;;;22.08;6.72;;;;;;;;;;4853214;29;20093;-87
2021/01/27 08:06:46;;;;;;;16.85;6.18;;;;;;;;;;4827511;29;20053;-87
2021/01/27 08:09:22;;;;;;;19.90;6.47;;;;;;;;;;4838868;29;20048;-88
2021/01/27 08:11:51;;;;;;;15.77;5.72;;;;;;;;;;4853043;29;20045;-89
2021/01/27 08:14:39;;;;;;;19.45;5.57;;;;;;;;;;4863788;28;20617;-89
2021/01/27 08:17:09;;;;;;;;;;;;;;;;;;4897843;28;20051;-88
2021/01/27 08:19:40;;;;;;;16.23;5.75;;;;;;;;;;4922133;28;19921;-89
2021/01/27 08:22:08;;;;;;;21.48;6.47;;;;;;;;;;4966823;28;20077;-89
2021/01/27 08:24:37;;;;;;;19.83;5.80;;;;;;;;;;4928166;28;20145;-88
2021/01/27 08:27:22;;;;;;;22.70;6.70;;;;;;;;;;4970813;28;20168;-87
2021/01/27 08:30:05;;;;;;;19.17;6.85;;;;;;;;;;4969623;28;20082;-88
2021/01/27 08:32:37;;;;;;;21.05;6.82;;;;;;;;;;4956751;28;20042;-89
2021/01/27 08:35:13;;;;;;;21.55;7.03;;;;;;;;;;4957699;28;20054;-89
2021/01/27 08:37:40;;;;;;;24.52;7.65;;;;;;;;;;4950746;28;20057;-91
2021/01/27 08:40:46;;;;;;;18.95;6.65;;;;;;;;;;4956532;28;20987;-89
2021/01/27 08:43:13;;;;;;;18.27;5.95;;;;;;;;;;4930437;28;20042;-88
2021/01/27 08:45:45;;;;;;;22.30;6.15;;;;;;;;;;4908999;28;20063;-87
2021/01/27 08:48:15;;;;;;;16.33;5.40;;;;;;;;;;4929167;28;20039;-87
2021/01/27 08:50:54;;;;;;;16.65;5.53;;;;;;;;;;4897844;28;20054;-88
2021/01/27 08:53:22;;;;;;;16.08;5.70;;;;;;;;;;4911594;28;20698;-88
2021/01/27 08:55:51;;;;;;;17.63;4.90;;;;;;;;;;4908038;28;23681;-90
2021/01/27 08:58:38;;;;;;;13.15;3.65;;;;;;;;;;4930920;28;20031;-87
2021/01/27 09:01:09;;;;;;;13.27;4.93;;;;;;;;;;4873986;28;20090;-87
2021/01/27 09:03:47;;;;;;;18.30;5.55;;;;;;;;;;4919973;28;20603;-89
2021/01/27 09:06:34;;;;;;;16.33;4.65;;;;;;;;;;4896860;28;20054;-89
2021/01/27 09:09:28;;;;;;;17.23;4.88;;;;;;;;;;4912892;29;20047;-89
2021/01/27 09:12:02;;;;;;;16.15;4.10;;;;;;;;;;4885721;29;20079;-88
2021/01/27 09:14:31;;;;;;;13.32;4.82;;;;;;;;;;4921383;28;20046;-89
2021/01/27 09:16:59;;;;;;;10.07;3.60;;;;;;;;;;4914418;28;20049;-86
2021/01/27 09:19:31;;;;;;;13.48;4.10;;;;;;;;;;4988753;28;20045;-89
2021/01/27 09:22:05;;;;;;;11.30;3.85;;;;;;;;;;4965751;28;20045;-88
2021/01/27 09:24:48;;;;;;;8.82;2.65;;;;;;;;;;4966347;28;20050;-87
2021/01/27 09:27:14;;;;;;;9.95;3.53;;;;;;;;;;4955661;28;20030;-88
2021/01/27 09:29:42;;;;;;;8.70;2.55;;;;;;;;;;4957684;28;20047;-89
2021/01/27 09:32:14;;;;;;;12.85;3.80;;;;;;;;;;4951460;28;20039;-88
2021/01/27 09:34:41;;;;;;;11.57;3.42;;;;;;;;;;4940043;28;20047;-87
2021/01/27 09:37:13;;;;;;;12.20;4.10;;;;;;;;;;4967357;28;20129;-88
2021/01/27 09:39:56;;;;;;;12.95;3.90;;;;;;;;;;4946056;28;20594;-88
2021/01/27 09:42:28;;;;;;;12.48;4.72;;;;;;;;;;4947752;28;20035;-89
2021/01/27 09:45:01;;;;;;;15.13;5.90;;;;;;;;;;4987141;28;20694;-89
2021/01/27 09:47:30;;;;;;;13.63;6.18;;;;;;;;;;4981838;28;21204;-88
2021/01/27 09:50:01;;;;;;;14.25;6.50;;;;;;;;;;4951872;28;20631;-87
2021/01/27 09:52:32;;;;;;;19.77;6.18;;;;;;;;;;4966197;28;20037;-88
2021/01/27 09:55:14;;;;;;;11.85;5.78;;;;;;;;;;4978175;28;20046;-88
2021/01/27 09:57:42;;;;;;;15.00;5.45;;;;;;;;;;4958600;28;20099;-89
2021/01/27 10:00:10;;;;;;;17.35;6.30;;;;;;;;;;4967643;28;20042;-88
2021/01/27 10:02:39;;;;;;;16.83;6.75;;;;;;;;;;4948067;28;20087;-88
2021/01/27 10:05:26;;;;;;;8.10;2.75;;;;;;;;;;4960477;28;20058;-89
2021/01/27 10:07:55;;;;;;;15.30;6.85;;;;;;;;;;4956664;28;20137;-89
2021/01/27 10:10:24;;;;;;;13.82;6.40;;;;;;;;;;5004729;28;20046;-90
2021/01/27 10:12:57;;;;;;;17.77;6.43;;;;;;;;;;4974078;28;20042;-88
2021/01/27 10:15:34;;;;;;;15.77;6.93;;;;;;;;;;4938017;28;20046;-88
2021/01/27 10:18:22;;;;;;;17.13;6.97;;;;;;;;;;4943339;28;20118;-88
2021/01/27 10:20:53;;;;;;;11.73;4.15;;;;;;;;;;4961469;28;20062;-89
2021/01/27 10:23:34;;;;;;;14.68;6.30;;;;;;;;;;4920885;28;20141;-89
2021/01/27 10:26:19;;;;;;;14.27;5.78;;;;;;;;;;4934490;28;20063;-89
2021/01/27 10:28:46;;;;;;;14.95;5.85;;;;;;;;;;4931932;28;20042;-87
2021/01/27 10:31:13;;;;;;;13.77;5.78;;;;;;;;;;4964438;28;20057;-87
2021/01/27 10:33:47;;;;;;;14.43;6.60;;;;;;;;;;4926346;28;20027;-87
2021/01/27 10:36:35;;;;;;;18.58;7.53;;;;;;;;;;4911910;28;20035;-87
2021/01/27 10:39:19;;;;;;;20.73;10.25;;;;;;;;;;4922353;28;20047;-87
2021/01/27 10:41:50;;;;;;;19.63;8.55;;;;;;;;;;4919195;28;20036;-87
2021/01/27 10:44:46;;;;;;;19.25;8.98;;;;;;;;;;4932147;28;20066;-86
2021/01/27 10:47:22;;;;;;;18.38;9.55;;;;;;;;;;4919643;28;20043;-87
2021/01/27 10:49:52;;;;;;;19.55;9.82;;;;;;;;;;4921476;28;20039;-87
2021/01/27 10:52:34;;;;;;;9.38;2.90;;;;;;;;;;4955210;28;20035;-87
2021/01/27 10:55:15;;;;;;;4.97;1.35;;;;;;;;;;4914652;28;20050;-87
2021/01/27 10:57:41;;;;;;;4.95;1.40;;;;;;;;;;4925897;28;20494;-86
2021/01/27 11:00:21;;;;;;;5.60;1.67;;;;;;;;;;4934870;28;20572;-87
2021/01/27 11:02:48;;;;;;;3.70;0.90;;;;;;;;;;5013802;28;20113;-89
2021/01/27 11:05:21;;;;;;;3.83;1.08;;;;;;;;;;5000689;28;20065;-90
2021/01/27 11:07:50;;;;;;;2.72;0.88;;;;;;;;;;4984548;28;20045;-88
2021/01/27 11:10:18;;;;;;;2.67;0.70;;;;;;;;;;4989357;28;20033;-88
2021/01/27 11:12:47;;;;;;;2.97;0.77;;;;;;;;;;4968423;28;20033;-89
2021/01/27 11:15:15;;;;;;;3.58;1.00;;;;;;;;;;4980079;28;20164;-88
2021/01/27 11:17:43;;;;;;;4.78;1.20;;;;;;;;;;4984691;28;20483;-86
2021/01/27 11:20:11;;;;;;;4.15;1.00;;;;;;;;;;4969515;28;20564;-86
2021/01/27 11:22:40;;;;;;;2.17;0.70;;;;;;;;;;4984802;28;20060;-88
2021/01/27 11:25:11;;;;;;;2.38;0.95;;;;;;;;;;4991334;28;20118;-87
2021/01/27 11:27:41;;;;;;;6.07;1.50;;;;;;;;;;4985408;28;20045;-87
2021/01/27 11:30:08;;;;;;;4.03;1.33;;;;;;;;;;4971162;28;20045;-87
2021/01/27 11:32:36;;;;;;;2.55;0.80;;;;;;;;;;4961926;28;20116;-88
2021/01/27 11:35:02;;;;;;;1.98;0.60;;;;;;;;;;4946779;28;21195;-85
2021/01/27 11:37:30;;;;;;;1.65;0.52;;;;;;;;;;4997224;28;20047;-87
2021/01/27 11:39:57;;;;;;;2.20;0.50;;;;;;;;;;4948478;28;20030;-86
2021/01/27 11:42:23;;;;;;;1.75;0.50;;;;;;;;;;5001452;28;20083;-87
2021/01/27 11:44:50;;;;;;;1.20;0.43;;;;;;;;;;4997144;28;20136;-87
2021/01/27 11:47:18;;;;;;;1.17;0.32;;;;;;;;;;4978925;28;20044;-89
2021/01/27 11:49:46;;;;;;;2.60;0.60;;;;;;;;;;5014053;28;20024;-87
2021/01/27 11:52:15;;;;;;;1.40;0.68;;;;;;;;;;5009408;28;20170;-86
2021/01/27 11:54:42;;;;;;;3.50;0.80;;;;;;;;;;5009835;28;20119;-87
2021/01/27 11:57:10;;;;;;;2.92;0.90;;;;;;;;;;5005070;28;20822;-86
2021/01/27 11:59:37;;;;;;;2.72;0.95;;;;;;;;;;4983559;28;20132;-87
2021/01/27 12:02:08;;;;;;;5.50;1.88;;;;;;;;;;5006113;28;20041;-85
2021/01/27 12:04:36;;;;;;;7.97;2.20;;;;;;;;;;5029755;28;20457;-85
2021/01/27 12:07:04;;;;;;;1.13;0.40;;;;;;;;;;5020157;28;20095;-84
2021/01/27 12:09:34;;;;;;;2.38;0.70;;;;;;;;;;4955440;28;20034;-84
2021/01/27 12:12:01;;;;;;;3.17;1.00;;;;;;;;;;4992211;28;20061;-85
2021/01/27 12:14:31;;;;;;;2.53;0.70;;;;;;;;;;4987092;28;21006;-86
2021/01/27 12:16:59;;;;;;;0.80;0.40;;;;;;;;;;5013812;28;20041;-86
2021/01/27 12:19:27;;;;;;;1.48;0.50;;;;;;;;;;5006111;28;20016;-88
2021/01/27 12:21:55;;;;;;;2.70;0.50;;;;;;;;;;5011602;28;20045;-88
2021/01/27 12:24:52;;;;;;;2.00;0.43;;;;;;;;;;4978342;28;20513;-89
2021/01/27 12:27:33;;;;;;;3.65;1.10;;;;;;;;;;5003147;28;20704;-88
2021/01/27 12:30:02;;;;;;;3.13;0.80;;;;;;;;;;4998443;28;20037;-85
2021/01/27 12:32:42;;;;;;;2.67;0.85;;;;;;;;;;4982807;28;20627;-87
2021/01/27 12:35:11;;;;;;;2.13;0.50;;;;;;;;;;4944889;28;20065;-87
2021/01/27 12:37:51;;;;;;;3.65;0.80;;;;;;;;;;5012408;28;20046;-86
2021/01/27 12:40:32;;;;;;;1.00;0.52;;;;;;;;;;4958453;28;20041;-87
2021/01/27 12:42:58;;;;;;;1.63;0.60;;;;;;;;;;4991896;28;20045;-90
2021/01/27 12:45:35;;;;;;;4.78;1.15;;;;;;;;;;5012887;28;20633;-89
2021/01/27 12:48:10;;;;;;;1.90;0.70;;;;;;;;;;4969343;28;20049;-88
2021/01/27 12:50:47;;;;;;;3.60;0.93;;;;;;;;;;4981624;28;20091;-88
2021/01/27 12:53:18;;;;;;;2.58;0.90;;;;;;;;;;4974943;28;20053;-87
2021/01/27 12:55:48;;;;;;;3.60;1.13;;;;;;;;;;5001523;28;20040;-86
2021/01/27 12:58:18;;;;;;;3.67;1.42;;;;;;;;;;5031129;28;20052;-86
2021/01/27 13:03:44;;;;;;;3.33;1.05;;;;;;;;;;5000514;28;20903;-88
2021/01/27 13:06:19;;;;;;;3.65;1.25;;;;;;;;;;4969448;28;20079;-86
2021/01/27 13:08:47;;;;;;;2.67;0.90;;;;;;;;;;4980588;28;20082;-87
2021/01/27 13:11:18;;;;;;;3.38;1.08;;;;;;;;;;4946618;28;20071;-86
2021/01/27 13:13:55;;;;;;;3.47;0.77;;;;;;;;;;4935047;28;20033;-87
2021/01/27 13:16:24;;;;;;;6.07;2.05;;;;;;;;;;4969330;28;20410;-86
2021/01/27 13:21:46;;;;;;;2.58;0.47;;;;;;;;;;4959284;28;20026;-87
2021/01/27 13:24:13;;;;;;;3.55;0.90;;;;;;;;;;4914839;28;21076;-88
2021/01/27 13:26:45;;;;;;;2.97;0.88;;;;;;;;;;4902053;28;20047;-86
2021/01/27 13:29:32;;;;;;;1.77;0.60;;;;;;;;;;4930715;28;20062;-88
2021/01/27 13:32:00;;;;;;;3.70;1.13;;;;;;;;;;4929549;28;22888;-86
2021/01/27 13:34:26;;;;;;;3.25;1.00;;;;;;;;;;4932565;28;20130;-86
2021/01/27 13:36:54;;;;;;;3.25;1.08;;;;;;;;;;4887859;28;20067;-87
2021/01/27 13:39:28;;;;;;;4.95;1.20;;;;;;;;;;4879198;28;20055;-86
2021/01/27 13:41:55;;;;;;;2.88;0.70;;;;;;;;;;4910117;28;20043;-85
2021/01/27 13:44:26;;;;;;;2.63;0.70;;;;;;;;;;4877529;28;20217;-86
2021/01/27 13:47:01;;;;;;;1.23;0.60;;;;;;;;;;4865524;28;20599;-85
2021/01/27 13:49:40;;;;;;;1.88;0.70;;;;;;;;;;4896761;29;20044;-90
2021/01/27 13:52:16;;;;;;;4.57;1.48;;;;;;;;;;4882568;29;20032;-91
2021/01/27 13:55:01;;;;;;;4.10;0.90;;;;;;;;;;4851234;28;20048;-89
2021/01/27 13:57:40;;;;;;;;;;;;;;;;;;4870627;28;20099;-91
2021/01/27 14:00:22;;;;;;;3.10;0.95;;;;;;;;;;4880446;28;20022;-88
2021/01/27 14:02:48;;;;;;;2.20;0.63;;;;;;;;;;4894216;28;20140;-91
2021/01/27 14:05:27;;;;;;;1.60;0.70;;;;;;;;;;4899768;28;20704;-90
2021/01/27 14:08:21;;;;;;;13.32;9.55;;;;;;;;;;4876053;28;20094;-89
2021/01/27 14:13:37;;;;;;;2.55;0.73;;;;;;;;;;4903505;28;20042;-81
2021/01/27 14:16:15;;;;;;;5.75;1.30;;;;;;;;;;4901335;28;20043;-81
2021/01/27 14:18:51;;;;;;;;;;;;;;;;;;;;;
2021/01/27 14:21:24;;;;;;;2.95;0.80;;;;;;;;;;4905858;28;20386;-81
2021/01/27 14:23:51;;;;;;;1.95;0.60;;;;;;;;;;4906986;28;20047;-81
2021/01/27 14:26:22;;;;;;;3.33;1.30;;;;;;;;;;4900322;28;20039;-81
2021/01/27 14:28:54;;;;;;;3.03;1.00;;;;;;;;;;4889395;28;20040;-81
2021/01/27 14:31:26;;;;;;;0.95;0.52;;;;;;;;;;4930070;28;20039;-82
2021/01/27 14:33:54;;;;;;;2.60;0.60;;;;;;;;;;4876963;28;20419;-81
2021/01/27 14:36:25;;;;;;;2.15;0.73;;;;;;;;;;4909747;28;20177;-82
2021/01/27 14:38:56;;;;;;;2.80;0.95;;;;;;;;;;4930977;28;20230;-82
2021/01/27 14:41:25;;;;;;;2.33;0.90;;;;;;;;;;4931450;28;20042;-81
2021/01/27 14:43:54;;;;;;;4.72;1.60;;;;;;;;;;4949018;28;20193;-81
2021/01/27 14:46:23;;;;;;;4.65;1.90;;;;;;;;;;4948449;28;20702;-81
2021/01/27 14:48:55;;;;;;;5.32;2.05;;;;;;;;;;4951464;28;20030;-82
2021/01/27 14:51:24;;;;;;;4.25;1.52;;;;;;;;;;4904142;28;20131;-81
2021/01/27 14:53:54;;;;;;;3.83;1.30;;;;;;;;;;4901000;28;20055;-81
2021/01/27 14:56:22;;;;;;;4.15;1.30;;;;;;;;;;4928211;28;20034;-81
2021/01/27 14:58:49;;;;;;;3.90;1.23;;;;;;;;;;4935177;28;20129;-81
2021/01/27 15:01:17;;;;;;;6.03;1.65;;;;;;;;;;5008382;28;20022;-81
2021/01/27 15:03:46;;;;;;;12.48;4.70;;;;;;;;;;4981767;28;20033;-81
2021/01/27 15:06:14;;;;;;;5.57;1.95;;;;;;;;;;4934198;28;20080;-80
2021/01/27 15:08:41;;;;;;;7.25;2.05;;;;;;;;;;4982880;28;20045;-81
2021/01/27 15:11:11;;;;;;;5.70;1.70;;;;;;;;;;4980611;28;20033;-80
2021/01/27 15:13:39;;;;;;;6.38;1.77;;;;;;;;;;4995599;28;20071;-82
2021/01/27 15:16:06;;;;;;;4.72;1.60;;;;;;;;;;4991337;28;20571;-81
2021/01/27 15:18:33;;;;;;;6.15;2.00;;;;;;;;;;4975620;28;20426;-83
2021/01/27 15:21:00;;;;;;;7.55;2.58;;;;;;;;;;4953697;28;20702;-83
2021/01/27 15:23:28;;;;;;;7.63;3.08;;;;;;;;;;4960421;28;20769;-82
2021/01/27 15:25:55;;;;;;;5.60;1.83;;;;;;;;;;4992342;28;20048;-82
2021/01/27 15:28:22;;;;;;;5.75;1.70;;;;;;;;;;4994054;28;20017;-82